sensor_id;sensor_type;location;lat;lon;timestamp;P1;durP1;ratioP1;P2;durP2;ratioP2
68938;SDS011;59064;45.294;11.816;2023-08-07T00:00:34;2.20;;;0.90;;
68938;SDS011;59064;45.294;11.816;2023-08-07T00:03:00;2.10;;;0.90;;
68938;SDS011;59064;45.294;11.816;2023-08-07T00:05:26;1.80;;;0.80;;
68938;SDS011;59064;45.294;11.816;2023-08-07T00:07:52;1.80;;;0.80;;
68938;SDS011;59064;45.294;11.816;2023-08-07T00:10:18;4.80;;;0.80;;
68938;SDS011;59064;45.294;11.816;2023-08-07T00:12:44;2.40;;;0.90;;
68938;SDS011;59064;45.294;11.816;2023-08-07T00:15:09;2.10;;;0.90;;
68938;SDS011;59064;45.294;11.816;2023-08-07T00:17:36;4.70;;;1.00;;
68938;SDS011;59064;45.294;11.816;2023-08-07T00:20:03;1.80;;;0.80;;
68938;SDS011;59064;45.294;11.816;2023-08-07T00:22:29;1.80;;;0.70;;
68938;SDS011;59064;45.294;11.816;2023-08-07T00:24:55;3.50;;;0.90;;
68938;SDS011;59064;45.294;11.816;2023-08-07T00:27:21;1.90;;;0.80;;
68938;SDS011;59064;45.294;11.816;2023-08-07T00:29:46;2.40;;;0.90;;
68938;SDS011;59064;45.294;11.816;2023-08-07T00:32:12;2.40;;;1.00;;
68938;SDS011;59064;45.294;11.816;2023-08-07T00:34:37;2.40;;;1.00;;
68938;SDS011;59064;45.294;11.816;2023-08-07T00:37:03;2.50;;;1.20;;
68938;SDS011;59064;45.294;11.816;2023-08-07T00:39:29;2.30;;;1.10;;
68938;SDS011;59064;45.294;11.816;2023-08-07T00:41:54;3.80;;;1.30;;
68938;SDS011;59064;45.294;11.816;2023-08-07T00:44:20;3.30;;;1.00;;
68938;SDS011;59064;45.294;11.816;2023-08-07T00:46:45;3.80;;;1.20;;
68938;SDS011;59064;45.294;11.816;2023-08-07T00:49:11;2.70;;;1.00;;
68938;SDS011;59064;45.294;11.816;2023-08-07T00:51:38;2.60;;;1.30;;
68938;SDS011;59064;45.294;11.816;2023-08-07T00:54:05;2.90;;;1.20;;
68938;SDS011;59064;45.294;11.816;2023-08-07T00:56:33;3.10;;;1.10;;
68938;SDS011;59064;45.294;11.816;2023-08-07T00:58:59;2.90;;;1.20;;
68938;SDS011;59064;45.294;11.816;2023-08-07T01:01:25;2.40;;;1.30;;
68938;SDS011;59064;45.294;11.816;2023-08-07T01:03:52;3.90;;;1.50;;
68938;SDS011;59064;45.294;11.816;2023-08-07T01:06:18;3.80;;;1.60;;
68938;SDS011;59064;45.294;11.816;2023-08-07T01:08:44;4.30;;;1.70;;
68938;SDS011;59064;45.294;11.816;2023-08-07T01:11:14;3.10;;;1.40;;
68938;SDS011;59064;45.294;11.816;2023-08-07T01:14:04;4.10;;;1.70;;
68938;SDS011;59064;45.294;11.816;2023-08-07T01:16:34;3.40;;;1.50;;
68938;SDS011;59064;45.294;11.816;2023-08-07T01:19:04;3.60;;;1.50;;
68938;SDS011;59064;45.294;11.816;2023-08-07T01:21:39;4.10;;;1.40;;
68938;SDS011;59064;45.294;11.816;2023-08-07T01:24:05;2.90;;;1.50;;
68938;SDS011;59064;45.294;11.816;2023-08-07T01:26:31;4.70;;;1.70;;
68938;SDS011;59064;45.294;11.816;2023-08-07T01:29:06;4.60;;;1.70;;
68938;SDS011;59064;45.294;11.816;2023-08-07T01:31:37;5.20;;;1.60;;
68938;SDS011;59064;45.294;11.816;2023-08-07T01:34:07;3.60;;;1.50;;
68938;SDS011;59064;45.294;11.816;2023-08-07T01:36:33;3.40;;;1.40;;
68938;SDS011;59064;45.294;11.816;2023-08-07T01:39:00;4.90;;;1.40;;
68938;SDS011;59064;45.294;11.816;2023-08-07T01:41:27;5.00;;;1.40;;
68938;SDS011;59064;45.294;11.816;2023-08-07T01:43:54;3.20;;;1.50;;
68938;SDS011;59064;45.294;11.816;2023-08-07T01:46:20;3.60;;;1.50;;
68938;SDS011;59064;45.294;11.816;2023-08-07T01:48:46;3.50;;;1.40;;
68938;SDS011;59064;45.294;11.816;2023-08-07T01:51:11;4.20;;;1.20;;
68938;SDS011;59064;45.294;11.816;2023-08-07T01:53:37;3.20;;;1.60;;
68938;SDS011;59064;45.294;11.816;2023-08-07T01:56:03;3.10;;;1.40;;
68938;SDS011;59064;45.294;11.816;2023-08-07T01:58:29;4.00;;;1.40;;
68938;SDS011;59064;45.294;11.816;2023-08-07T02:00:54;2.60;;;1.30;;
68938;SDS011;59064;45.294;11.816;2023-08-07T02:03:20;3.00;;;1.50;;
68938;SDS011;59064;45.294;11.816;2023-08-07T02:05:46;3.90;;;1.40;;
68938;SDS011;59064;45.294;11.816;2023-08-07T02:08:12;3.40;;;1.40;;
68938;SDS011;59064;45.294;11.816;2023-08-07T02:10:37;2.30;;;1.10;;
68938;SDS011;59064;45.294;11.816;2023-08-07T02:13:03;2.90;;;1.10;;
68938;SDS011;59064;45.294;11.816;2023-08-07T02:15:29;5.60;;;1.20;;
68938;SDS011;59064;45.294;11.816;2023-08-07T02:17:54;2.50;;;1.10;;
68938;SDS011;59064;45.294;11.816;2023-08-07T02:20:20;3.10;;;1.30;;
68938;SDS011;59064;45.294;11.816;2023-08-07T02:22:46;2.70;;;1.20;;
68938;SDS011;59064;45.294;11.816;2023-08-07T02:25:11;3.30;;;1.20;;
68938;SDS011;59064;45.294;11.816;2023-08-07T02:27:37;2.20;;;1.20;;
68938;SDS011;59064;45.294;11.816;2023-08-07T02:30:02;4.50;;;1.30;;
68938;SDS011;59064;45.294;11.816;2023-08-07T02:32:29;3.50;;;1.40;;
68938;SDS011;59064;45.294;11.816;2023-08-07T02:34:55;3.70;;;1.30;;
68938;SDS011;59064;45.294;11.816;2023-08-07T02:37:20;3.90;;;1.40;;
68938;SDS011;59064;45.294;11.816;2023-08-07T02:39:46;2.30;;;1.10;;
68938;SDS011;59064;45.294;11.816;2023-08-07T02:42:12;3.20;;;1.20;;
68938;SDS011;59064;45.294;11.816;2023-08-07T02:44:37;3.80;;;1.30;;
68938;SDS011;59064;45.294;11.816;2023-08-07T02:47:03;2.60;;;1.30;;
68938;SDS011;59064;45.294;11.816;2023-08-07T02:49:29;3.30;;;1.30;;
68938;SDS011;59064;45.294;11.816;2023-08-07T02:51:55;3.60;;;1.30;;
68938;SDS011;59064;45.294;11.816;2023-08-07T02:54:20;3.00;;;1.50;;
68938;SDS011;59064;45.294;11.816;2023-08-07T02:56:46;3.70;;;1.30;;
68938;SDS011;59064;45.294;11.816;2023-08-07T02:59:11;2.80;;;1.50;;
68938;SDS011;59064;45.294;11.816;2023-08-07T03:01:37;5.00;;;1.30;;
68938;SDS011;59064;45.294;11.816;2023-08-07T03:04:02;2.90;;;1.10;;
68938;SDS011;59064;45.294;11.816;2023-08-07T03:06:28;2.70;;;1.20;;
68938;SDS011;59064;45.294;11.816;2023-08-07T03:08:54;2.90;;;1.30;;
68938;SDS011;59064;45.294;11.816;2023-08-07T03:11:20;4.20;;;1.40;;
68938;SDS011;59064;45.294;11.816;2023-08-07T03:13:46;3.40;;;1.40;;
68938;SDS011;59064;45.294;11.816;2023-08-07T03:16:11;3.60;;;1.50;;
68938;SDS011;59064;45.294;11.816;2023-08-07T03:18:37;3.70;;;1.60;;
68938;SDS011;59064;45.294;11.816;2023-08-07T03:21:02;2.50;;;1.10;;
68938;SDS011;59064;45.294;11.816;2023-08-07T03:23:28;2.50;;;1.20;;
68938;SDS011;59064;45.294;11.816;2023-08-07T03:28:33;4.30;;;1.40;;
68938;SDS011;59064;45.294;11.816;2023-08-07T03:30:59;3.50;;;1.10;;
68938;SDS011;59064;45.294;11.816;2023-08-07T03:33:25;3.50;;;1.10;;
68938;SDS011;59064;45.294;11.816;2023-08-07T03:35:51;2.50;;;1.10;;
68938;SDS011;59064;45.294;11.816;2023-08-07T03:38:17;5.20;;;1.30;;
68938;SDS011;59064;45.294;11.816;2023-08-07T03:40:42;3.00;;;1.30;;
68938;SDS011;59064;45.294;11.816;2023-08-07T03:43:08;2.70;;;1.20;;
68938;SDS011;59064;45.294;11.816;2023-08-07T03:45:33;2.10;;;1.00;;
68938;SDS011;59064;45.294;11.816;2023-08-07T03:48:00;4.80;;;1.20;;
68938;SDS011;59064;45.294;11.816;2023-08-07T03:50:25;2.30;;;1.00;;
68938;SDS011;59064;45.294;11.816;2023-08-07T03:52:51;3.70;;;1.20;;
68938;SDS011;59064;45.294;11.816;2023-08-07T03:55:16;5.10;;;1.30;;
68938;SDS011;59064;45.294;11.816;2023-08-07T03:57:43;3.10;;;1.30;;
68938;SDS011;59064;45.294;11.816;2023-08-07T04:00:09;3.30;;;1.70;;
68938;SDS011;59064;45.294;11.816;2023-08-07T04:02:35;4.60;;;1.30;;
68938;SDS011;59064;45.294;11.816;2023-08-07T04:05:00;3.30;;;1.30;;
68938;SDS011;59064;45.294;11.816;2023-08-07T04:07:26;3.00;;;1.10;;
68938;SDS011;59064;45.294;11.816;2023-08-07T04:09:51;4.00;;;1.30;;
68938;SDS011;59064;45.294;11.816;2023-08-07T04:12:17;3.70;;;1.10;;
68938;SDS011;59064;45.294;11.816;2023-08-07T04:14:43;4.70;;;1.40;;
68938;SDS011;59064;45.294;11.816;2023-08-07T04:17:08;2.90;;;1.20;;
68938;SDS011;59064;45.294;11.816;2023-08-07T04:19:34;2.40;;;1.00;;
68938;SDS011;59064;45.294;11.816;2023-08-07T04:22:00;2.70;;;1.10;;
68938;SDS011;59064;45.294;11.816;2023-08-07T04:24:25;3.40;;;1.20;;
68938;SDS011;59064;45.294;11.816;2023-08-07T04:26:51;2.50;;;1.00;;
68938;SDS011;59064;45.294;11.816;2023-08-07T04:29:17;3.20;;;1.00;;
68938;SDS011;59064;45.294;11.816;2023-08-07T04:31:42;3.90;;;1.30;;
68938;SDS011;59064;45.294;11.816;2023-08-07T04:34:08;2.30;;;1.00;;
68938;SDS011;59064;45.294;11.816;2023-08-07T04:36:33;3.50;;;1.20;;
68938;SDS011;59064;45.294;11.816;2023-08-07T04:38:59;2.70;;;0.90;;
68938;SDS011;59064;45.294;11.816;2023-08-07T04:41:25;4.40;;;1.30;;
68938;SDS011;59064;45.294;11.816;2023-08-07T04:43:50;3.10;;;1.00;;
68938;SDS011;59064;45.294;11.816;2023-08-07T04:46:16;2.30;;;1.00;;
68938;SDS011;59064;45.294;11.816;2023-08-07T04:48:41;2.50;;;1.00;;
68938;SDS011;59064;45.294;11.816;2023-08-07T04:51:07;2.50;;;0.80;;
68938;SDS011;59064;45.294;11.816;2023-08-07T04:53:32;2.80;;;0.90;;
68938;SDS011;59064;45.294;11.816;2023-08-07T04:56:02;2.70;;;0.80;;
68938;SDS011;59064;45.294;11.816;2023-08-07T04:58:28;2.70;;;0.90;;
68938;SDS011;59064;45.294;11.816;2023-08-07T05:00:56;3.40;;;1.10;;
68938;SDS011;59064;45.294;11.816;2023-08-07T05:03:23;3.30;;;1.00;;
68938;SDS011;59064;45.294;11.816;2023-08-07T05:05:49;2.00;;;0.90;;
68938;SDS011;59064;45.294;11.816;2023-08-07T05:08:16;3.60;;;1.10;;
68938;SDS011;59064;45.294;11.816;2023-08-07T05:10:42;6.10;;;1.40;;
68938;SDS011;59064;45.294;11.816;2023-08-07T05:13:08;4.50;;;0.80;;
68938;SDS011;59064;45.294;11.816;2023-08-07T05:15:33;5.00;;;0.90;;
68938;SDS011;59064;45.294;11.816;2023-08-07T05:17:59;5.70;;;0.90;;
68938;SDS011;59064;45.294;11.816;2023-08-07T05:20:25;4.00;;;1.10;;
68938;SDS011;59064;45.294;11.816;2023-08-07T05:22:50;4.20;;;1.30;;
68938;SDS011;59064;45.294;11.816;2023-08-07T05:25:17;3.70;;;1.10;;
68938;SDS011;59064;45.294;11.816;2023-08-07T05:27:44;3.10;;;1.10;;
68938;SDS011;59064;45.294;11.816;2023-08-07T05:30:11;3.30;;;1.20;;
68938;SDS011;59064;45.294;11.816;2023-08-07T05:32:37;3.40;;;1.00;;
68938;SDS011;59064;45.294;11.816;2023-08-07T05:35:06;3.50;;;1.00;;
68938;SDS011;59064;45.294;11.816;2023-08-07T05:37:33;2.30;;;0.80;;
68938;SDS011;59064;45.294;11.816;2023-08-07T05:39:59;3.60;;;1.00;;
68938;SDS011;59064;45.294;11.816;2023-08-07T05:42:25;4.40;;;1.10;;
68938;SDS011;59064;45.294;11.816;2023-08-07T05:44:51;4.60;;;1.20;;
68938;SDS011;59064;45.294;11.816;2023-08-07T05:47:16;3.90;;;0.90;;
68938;SDS011;59064;45.294;11.816;2023-08-07T05:49:42;2.40;;;0.90;;
68938;SDS011;59064;45.294;11.816;2023-08-07T05:52:08;3.60;;;0.90;;
68938;SDS011;59064;45.294;11.816;2023-08-07T05:54:34;3.80;;;1.30;;
68938;SDS011;59064;45.294;11.816;2023-08-07T05:57:00;3.40;;;1.60;;
68938;SDS011;59064;45.294;11.816;2023-08-07T05:59:25;3.80;;;1.00;;
68938;SDS011;59064;45.294;11.816;2023-08-07T06:01:51;2.90;;;1.00;;
68938;SDS011;59064;45.294;11.816;2023-08-07T06:04:18;5.00;;;1.30;;
68938;SDS011;59064;45.294;11.816;2023-08-07T06:06:43;4.00;;;1.00;;
68938;SDS011;59064;45.294;11.816;2023-08-07T06:09:11;3.30;;;1.50;;
68938;SDS011;59064;45.294;11.816;2023-08-07T06:11:37;2.50;;;1.10;;
68938;SDS011;59064;45.294;11.816;2023-08-07T06:14:03;3.70;;;1.00;;
68938;SDS011;59064;45.294;11.816;2023-08-07T06:16:29;3.40;;;1.40;;
68938;SDS011;59064;45.294;11.816;2023-08-07T06:18:54;3.60;;;1.10;;
68938;SDS011;59064;45.294;11.816;2023-08-07T06:21:23;5.70;;;1.30;;
68938;SDS011;59064;45.294;11.816;2023-08-07T06:23:49;3.50;;;1.20;;
68938;SDS011;59064;45.294;11.816;2023-08-07T06:26:15;2.90;;;1.20;;
68938;SDS011;59064;45.294;11.816;2023-08-07T06:28:41;3.30;;;1.10;;
68938;SDS011;59064;45.294;11.816;2023-08-07T06:31:09;4.10;;;1.30;;
68938;SDS011;59064;45.294;11.816;2023-08-07T06:33:37;3.20;;;1.10;;
68938;SDS011;59064;45.294;11.816;2023-08-07T06:36:03;3.50;;;1.40;;
68938;SDS011;59064;45.294;11.816;2023-08-07T06:38:30;5.60;;;1.20;;
68938;SDS011;59064;45.294;11.816;2023-08-07T06:40:56;4.60;;;1.60;;
68938;SDS011;59064;45.294;11.816;2023-08-07T06:43:22;5.90;;;2.20;;
68938;SDS011;59064;45.294;11.816;2023-08-07T06:45:55;6.00;;;3.10;;
68938;SDS011;59064;45.294;11.816;2023-08-07T06:48:21;6.50;;;2.90;;
68938;SDS011;59064;45.294;11.816;2023-08-07T06:50:48;8.10;;;3.30;;
68938;SDS011;59064;45.294;11.816;2023-08-07T06:53:15;6.40;;;2.70;;
68938;SDS011;59064;45.294;11.816;2023-08-07T06:55:42;6.30;;;2.90;;
68938;SDS011;59064;45.294;11.816;2023-08-07T06:58:08;4.60;;;2.30;;
68938;SDS011;59064;45.294;11.816;2023-08-07T07:00:36;3.00;;;1.20;;
68938;SDS011;59064;45.294;11.816;2023-08-07T07:03:02;4.30;;;0.90;;
68938;SDS011;59064;45.294;11.816;2023-08-07T07:05:29;2.10;;;0.90;;
68938;SDS011;59064;45.294;11.816;2023-08-07T07:07:55;5.30;;;1.20;;
68938;SDS011;59064;45.294;11.816;2023-08-07T07:10:22;4.80;;;0.80;;
68938;SDS011;59064;45.294;11.816;2023-08-07T07:12:47;3.30;;;0.80;;
68938;SDS011;59064;45.294;11.816;2023-08-07T07:15:13;2.60;;;0.70;;
68938;SDS011;59064;45.294;11.816;2023-08-07T07:17:39;2.70;;;0.80;;
68938;SDS011;59064;45.294;11.816;2023-08-07T07:20:05;2.30;;;0.70;;
68938;SDS011;59064;45.294;11.816;2023-08-07T07:22:31;4.80;;;0.70;;
68938;SDS011;59064;45.294;11.816;2023-08-07T07:24:57;3.60;;;0.70;;
68938;SDS011;59064;45.294;11.816;2023-08-07T07:27:22;2.80;;;0.70;;
68938;SDS011;59064;45.294;11.816;2023-08-07T07:29:51;3.00;;;0.70;;
68938;SDS011;59064;45.294;11.816;2023-08-07T07:32:17;1.90;;;0.60;;
68938;SDS011;59064;45.294;11.816;2023-08-07T07:34:43;2.90;;;0.70;;
68938;SDS011;59064;45.294;11.816;2023-08-07T07:37:08;2.80;;;0.60;;
68938;SDS011;59064;45.294;11.816;2023-08-07T07:39:35;2.30;;;0.50;;
68938;SDS011;59064;45.294;11.816;2023-08-07T07:42:01;3.10;;;1.00;;
68938;SDS011;59064;45.294;11.816;2023-08-07T07:44:26;1.80;;;0.60;;
68938;SDS011;59064;45.294;11.816;2023-08-07T07:46:52;1.70;;;0.60;;
68938;SDS011;59064;45.294;11.816;2023-08-07T07:49:18;2.90;;;0.70;;
68938;SDS011;59064;45.294;11.816;2023-08-07T07:51:44;3.70;;;0.60;;
68938;SDS011;59064;45.294;11.816;2023-08-07T07:54:10;3.10;;;0.80;;
68938;SDS011;59064;45.294;11.816;2023-08-07T07:56:36;3.80;;;1.00;;
68938;SDS011;59064;45.294;11.816;2023-08-07T07:59:01;1.70;;;0.50;;
68938;SDS011;59064;45.294;11.816;2023-08-07T08:01:27;2.40;;;0.70;;
68938;SDS011;59064;45.294;11.816;2023-08-07T08:03:53;1.70;;;0.60;;
68938;SDS011;59064;45.294;11.816;2023-08-07T08:06:19;2.40;;;0.80;;
68938;SDS011;59064;45.294;11.816;2023-08-07T08:08:44;3.20;;;0.60;;
68938;SDS011;59064;45.294;11.816;2023-08-07T08:11:10;3.30;;;0.80;;
68938;SDS011;59064;45.294;11.816;2023-08-07T08:13:35;3.10;;;0.80;;
68938;SDS011;59064;45.294;11.816;2023-08-07T08:16:04;3.90;;;0.80;;
68938;SDS011;59064;45.294;11.816;2023-08-07T08:18:30;2.60;;;0.80;;
68938;SDS011;59064;45.294;11.816;2023-08-07T08:20:56;2.00;;;0.70;;
68938;SDS011;59064;45.294;11.816;2023-08-07T08:23:22;2.60;;;0.70;;
68938;SDS011;59064;45.294;11.816;2023-08-07T08:25:48;3.10;;;0.70;;
68938;SDS011;59064;45.294;11.816;2023-08-07T08:28:14;3.30;;;0.80;;
68938;SDS011;59064;45.294;11.816;2023-08-07T08:30:41;2.40;;;0.70;;
68938;SDS011;59064;45.294;11.816;2023-08-07T08:33:07;3.80;;;1.10;;
68938;SDS011;59064;45.294;11.816;2023-08-07T08:35:36;3.70;;;1.00;;
68938;SDS011;59064;45.294;11.816;2023-08-07T08:38:02;3.10;;;0.90;;
68938;SDS011;59064;45.294;11.816;2023-08-07T08:40:28;5.30;;;0.90;;
68938;SDS011;59064;45.294;11.816;2023-08-07T08:42:56;3.90;;;0.90;;
68938;SDS011;59064;45.294;11.816;2023-08-07T08:45:26;2.50;;;0.80;;
68938;SDS011;59064;45.294;11.816;2023-08-07T08:47:55;3.40;;;0.70;;
68938;SDS011;59064;45.294;11.816;2023-08-07T08:50:26;3.00;;;0.80;;
68938;SDS011;59064;45.294;11.816;2023-08-07T08:52:51;2.10;;;0.70;;
68938;SDS011;59064;45.294;11.816;2023-08-07T08:55:19;4.20;;;0.90;;
68938;SDS011;59064;45.294;11.816;2023-08-07T08:57:46;5.00;;;1.10;;
68938;SDS011;59064;45.294;11.816;2023-08-07T09:00:13;1.70;;;0.60;;
68938;SDS011;59064;45.294;11.816;2023-08-07T09:02:47;1.30;;;0.50;;
68938;SDS011;59064;45.294;11.816;2023-08-07T09:05:14;2.50;;;0.70;;
68938;SDS011;59064;45.294;11.816;2023-08-07T09:07:41;1.80;;;0.60;;
68938;SDS011;59064;45.294;11.816;2023-08-07T09:10:08;3.60;;;0.80;;
68938;SDS011;59064;45.294;11.816;2023-08-07T09:12:37;2.90;;;0.60;;
68938;SDS011;59064;45.294;11.816;2023-08-07T09:15:06;1.60;;;0.50;;
68938;SDS011;59064;45.294;11.816;2023-08-07T09:17:35;4.90;;;0.70;;
68938;SDS011;59064;45.294;11.816;2023-08-07T09:20:09;2.60;;;0.60;;
68938;SDS011;59064;45.294;11.816;2023-08-07T09:22:40;3.10;;;0.70;;
68938;SDS011;59064;45.294;11.816;2023-08-07T09:25:07;2.30;;;0.60;;
68938;SDS011;59064;45.294;11.816;2023-08-07T09:27:38;1.70;;;0.60;;
68938;SDS011;59064;45.294;11.816;2023-08-07T09:30:05;3.30;;;0.80;;
68938;SDS011;59064;45.294;11.816;2023-08-07T09:32:36;2.50;;;0.70;;
68938;SDS011;59064;45.294;11.816;2023-08-07T09:35:03;3.40;;;0.60;;
68938;SDS011;59064;45.294;11.816;2023-08-07T09:37:32;2.30;;;0.70;;
68938;SDS011;59064;45.294;11.816;2023-08-07T09:40:00;1.80;;;0.60;;
68938;SDS011;59064;45.294;11.816;2023-08-07T09:42:30;2.10;;;0.60;;
68938;SDS011;59064;45.294;11.816;2023-08-07T09:44:59;2.50;;;0.70;;
68938;SDS011;59064;45.294;11.816;2023-08-07T09:47:25;2.50;;;0.50;;
68938;SDS011;59064;45.294;11.816;2023-08-07T09:49:51;1.10;;;0.40;;
68938;SDS011;59064;45.294;11.816;2023-08-07T09:52:19;2.80;;;0.70;;
68938;SDS011;59064;45.294;11.816;2023-08-07T09:54:46;2.00;;;0.50;;
68938;SDS011;59064;45.294;11.816;2023-08-07T09:57:11;1.60;;;0.60;;
68938;SDS011;59064;45.294;11.816;2023-08-07T09:59:39;2.10;;;0.60;;
68938;SDS011;59064;45.294;11.816;2023-08-07T10:02:06;1.40;;;0.40;;
68938;SDS011;59064;45.294;11.816;2023-08-07T10:04:33;2.20;;;0.50;;
68938;SDS011;59064;45.294;11.816;2023-08-07T10:07:00;2.70;;;0.60;;
68938;SDS011;59064;45.294;11.816;2023-08-07T10:09:26;2.20;;;0.60;;
68938;SDS011;59064;45.294;11.816;2023-08-07T10:11:52;1.80;;;0.60;;
68938;SDS011;59064;45.294;11.816;2023-08-07T10:14:19;2.80;;;0.80;;
68938;SDS011;59064;45.294;11.816;2023-08-07T10:16:47;2.60;;;0.60;;
68938;SDS011;59064;45.294;11.816;2023-08-07T10:19:14;1.90;;;0.60;;
68938;SDS011;59064;45.294;11.816;2023-08-07T10:21:40;2.50;;;0.70;;
68938;SDS011;59064;45.294;11.816;2023-08-07T10:24:07;3.20;;;0.60;;
68938;SDS011;59064;45.294;11.816;2023-08-07T10:26:41;1.60;;;0.40;;
68938;SDS011;59064;45.294;11.816;2023-08-07T10:29:13;2.00;;;0.60;;
68938;SDS011;59064;45.294;11.816;2023-08-07T10:31:42;2.20;;;0.50;;
68938;SDS011;59064;45.294;11.816;2023-08-07T10:34:09;1.40;;;0.50;;
68938;SDS011;59064;45.294;11.816;2023-08-07T10:36:36;1.80;;;0.50;;
68938;SDS011;59064;45.294;11.816;2023-08-07T10:39:11;1.60;;;0.40;;
68938;SDS011;59064;45.294;11.816;2023-08-07T10:41:42;1.40;;;0.40;;
68938;SDS011;59064;45.294;11.816;2023-08-07T10:44:24;1.20;;;0.40;;
68938;SDS011;59064;45.294;11.816;2023-08-07T10:46:53;1.10;;;0.40;;
68938;SDS011;59064;45.294;11.816;2023-08-07T10:49:40;1.30;;;0.30;;
68938;SDS011;59064;45.294;11.816;2023-08-07T10:52:13;0.70;;;0.30;;
68938;SDS011;59064;45.294;11.816;2023-08-07T10:54:50;1.30;;;0.40;;
68938;SDS011;59064;45.294;11.816;2023-08-07T10:57:18;1.40;;;0.40;;
68938;SDS011;59064;45.294;11.816;2023-08-07T11:00:04;1.30;;;0.40;;
68938;SDS011;59064;45.294;11.816;2023-08-07T11:02:31;1.30;;;0.30;;
68938;SDS011;59064;45.294;11.816;2023-08-07T11:05:06;1.40;;;0.50;;
68938;SDS011;59064;45.294;11.816;2023-08-07T11:07:32;1.70;;;0.40;;
68938;SDS011;59064;45.294;11.816;2023-08-07T11:09:58;1.00;;;0.30;;
68938;SDS011;59064;45.294;11.816;2023-08-07T11:12:28;1.10;;;0.30;;
68938;SDS011;59064;45.294;11.816;2023-08-07T11:14:55;1.00;;;0.40;;
68938;SDS011;59064;45.294;11.816;2023-08-07T11:17:28;1.40;;;0.40;;
68938;SDS011;59064;45.294;11.816;2023-08-07T11:19:55;2.00;;;0.40;;
68938;SDS011;59064;45.294;11.816;2023-08-07T11:22:21;1.40;;;0.40;;
68938;SDS011;59064;45.294;11.816;2023-08-07T11:24:47;2.30;;;0.60;;
68938;SDS011;59064;45.294;11.816;2023-08-07T11:27:13;1.10;;;0.40;;
68938;SDS011;59064;45.294;11.816;2023-08-07T11:29:38;2.20;;;0.30;;
68938;SDS011;59064;45.294;11.816;2023-08-07T11:32:05;1.30;;;0.40;;
68938;SDS011;59064;45.294;11.816;2023-08-07T11:34:31;1.20;;;0.30;;
68938;SDS011;59064;45.294;11.816;2023-08-07T11:36:57;1.20;;;0.40;;
68938;SDS011;59064;45.294;11.816;2023-08-07T11:39:23;1.00;;;0.30;;
68938;SDS011;59064;45.294;11.816;2023-08-07T11:41:53;1.20;;;0.40;;
68938;SDS011;59064;45.294;11.816;2023-08-07T11:44:19;2.00;;;0.50;;
68938;SDS011;59064;45.294;11.816;2023-08-07T11:46:45;1.40;;;0.40;;
68938;SDS011;59064;45.294;11.816;2023-08-07T11:49:11;1.60;;;0.50;;
68938;SDS011;59064;45.294;11.816;2023-08-07T11:51:37;1.30;;;0.40;;
68938;SDS011;59064;45.294;11.816;2023-08-07T11:54:03;1.00;;;0.30;;
68938;SDS011;59064;45.294;11.816;2023-08-07T11:56:29;1.70;;;0.50;;
68938;SDS011;59064;45.294;11.816;2023-08-07T11:58:56;1.40;;;0.40;;
68938;SDS011;59064;45.294;11.816;2023-08-07T12:01:23;1.30;;;0.40;;
68938;SDS011;59064;45.294;11.816;2023-08-07T12:06:33;0.70;;;0.30;;
68938;SDS011;59064;45.294;11.816;2023-08-07T12:09:00;1.00;;;0.30;;
68938;SDS011;59064;45.294;11.816;2023-08-07T12:11:29;1.00;;;0.30;;
68938;SDS011;59064;45.294;11.816;2023-08-07T12:13:55;3.30;;;0.60;;
68938;SDS011;59064;45.294;11.816;2023-08-07T12:16:24;1.00;;;0.30;;
68938;SDS011;59064;45.294;11.816;2023-08-07T12:18:51;1.30;;;0.40;;
68938;SDS011;59064;45.294;11.816;2023-08-07T12:21:21;1.90;;;0.40;;
68938;SDS011;59064;45.294;11.816;2023-08-07T12:23:51;1.50;;;0.40;;
68938;SDS011;59064;45.294;11.816;2023-08-07T12:26:20;1.40;;;0.50;;
68938;SDS011;59064;45.294;11.816;2023-08-07T12:28:46;1.40;;;0.50;;
68938;SDS011;59064;45.294;11.816;2023-08-07T12:31:12;1.30;;;0.50;;
68938;SDS011;59064;45.294;11.816;2023-08-07T12:33:37;1.40;;;0.40;;
68938;SDS011;59064;45.294;11.816;2023-08-07T12:36:03;1.30;;;0.40;;
68938;SDS011;59064;45.294;11.816;2023-08-07T12:38:29;2.20;;;0.50;;
68938;SDS011;59064;45.294;11.816;2023-08-07T12:40:55;0.70;;;0.30;;
68938;SDS011;59064;45.294;11.816;2023-08-07T12:43:21;1.20;;;0.40;;
68938;SDS011;59064;45.294;11.816;2023-08-07T12:45:47;2.40;;;0.50;;
68938;SDS011;59064;45.294;11.816;2023-08-07T12:48:13;1.30;;;0.50;;
68938;SDS011;59064;45.294;11.816;2023-08-07T12:50:38;1.00;;;0.30;;
68938;SDS011;59064;45.294;11.816;2023-08-07T12:53:05;1.80;;;0.40;;
68938;SDS011;59064;45.294;11.816;2023-08-07T12:55:31;1.30;;;0.40;;
68938;SDS011;59064;45.294;11.816;2023-08-07T12:57:57;1.30;;;0.40;;
68938;SDS011;59064;45.294;11.816;2023-08-07T13:00:24;1.30;;;0.40;;
68938;SDS011;59064;45.294;11.816;2023-08-07T13:02:50;1.00;;;0.40;;
68938;SDS011;59064;45.294;11.816;2023-08-07T13:05:17;1.40;;;0.40;;
68938;SDS011;59064;45.294;11.816;2023-08-07T13:07:44;1.20;;;0.40;;
68938;SDS011;59064;45.294;11.816;2023-08-07T13:10:11;0.90;;;0.40;;
68938;SDS011;59064;45.294;11.816;2023-08-07T13:12:40;1.30;;;0.40;;
68938;SDS011;59064;45.294;11.816;2023-08-07T13:15:09;0.90;;;0.40;;
68938;SDS011;59064;45.294;11.816;2023-08-07T13:17:38;1.20;;;0.40;;
68938;SDS011;59064;45.294;11.816;2023-08-07T13:20:05;1.10;;;0.50;;
68938;SDS011;59064;45.294;11.816;2023-08-07T13:22:37;2.90;;;0.40;;
68938;SDS011;59064;45.294;11.816;2023-08-07T13:25:04;1.40;;;0.40;;
68938;SDS011;59064;45.294;11.816;2023-08-07T13:27:33;1.20;;;0.40;;
68938;SDS011;59064;45.294;11.816;2023-08-07T13:30:00;1.40;;;0.30;;
68938;SDS011;59064;45.294;11.816;2023-08-07T13:32:26;1.20;;;0.50;;
68938;SDS011;59064;45.294;11.816;2023-08-07T13:34:52;1.90;;;0.50;;
68938;SDS011;59064;45.294;11.816;2023-08-07T13:37:18;1.30;;;0.40;;
68938;SDS011;59064;45.294;11.816;2023-08-07T13:39:44;1.00;;;0.30;;
68938;SDS011;59064;45.294;11.816;2023-08-07T13:42:10;1.40;;;0.40;;
68938;SDS011;59064;45.294;11.816;2023-08-07T13:44:36;1.10;;;0.40;;
68938;SDS011;59064;45.294;11.816;2023-08-07T13:47:04;1.10;;;0.30;;
68938;SDS011;59064;45.294;11.816;2023-08-07T13:49:29;0.90;;;0.30;;
68938;SDS011;59064;45.294;11.816;2023-08-07T13:51:55;1.60;;;0.50;;
68938;SDS011;59064;45.294;11.816;2023-08-07T13:54:21;2.10;;;0.50;;
68938;SDS011;59064;45.294;11.816;2023-08-07T13:56:47;1.40;;;0.40;;
68938;SDS011;59064;45.294;11.816;2023-08-07T13:59:13;1.10;;;0.30;;
68938;SDS011;59064;45.294;11.816;2023-08-07T14:01:39;2.10;;;0.40;;
68938;SDS011;59064;45.294;11.816;2023-08-07T14:04:05;1.50;;;0.40;;
68938;SDS011;59064;45.294;11.816;2023-08-07T14:06:30;1.40;;;0.30;;
68938;SDS011;59064;45.294;11.816;2023-08-07T14:08:56;0.90;;;0.40;;
68938;SDS011;59064;45.294;11.816;2023-08-07T14:11:21;1.10;;;0.50;;
68938;SDS011;59064;45.294;11.816;2023-08-07T14:13:49;1.00;;;0.30;;
68938;SDS011;59064;45.294;11.816;2023-08-07T14:16:15;1.40;;;0.50;;
68938;SDS011;59064;45.294;11.816;2023-08-07T14:18:40;1.10;;;0.30;;
68938;SDS011;59064;45.294;11.816;2023-08-07T14:21:06;2.00;;;0.40;;
68938;SDS011;59064;45.294;11.816;2023-08-07T14:23:32;1.10;;;0.30;;
68938;SDS011;59064;45.294;11.816;2023-08-07T14:25:57;1.50;;;0.40;;
68938;SDS011;59064;45.294;11.816;2023-08-07T14:28:23;1.10;;;0.40;;
68938;SDS011;59064;45.294;11.816;2023-08-07T14:30:49;1.30;;;0.40;;
68938;SDS011;59064;45.294;11.816;2023-08-07T14:33:14;2.30;;;0.40;;
68938;SDS011;59064;45.294;11.816;2023-08-07T14:35:40;1.10;;;0.40;;